Lanzarote, Canary Islands

12:43 PM WEST on September 18, 2014 (GMT +0100)
Lanzarote | Change Station
CLOSE
Current Station
Airport
Location: Lanzarote,
Elevation: 69 ft
Nearby Weather Stations

Elev 69 ft 28.95 °N, 13.60 °W | Updated 13 minutes ago

Scattered Clouds
Scattered Clouds
82 °F
Feels Like 82 °F
N
9
Wind Variable Wind from North

Today
High -- | Low -- °F
--% Chance of Precip.
Yesterday
High -- | Low -- °F
Precip. -- in
7:40 AM 7:56 PM
Waning Crescent, 28% visible
Pressure 29.98 in
Visibility 6.2 miles
Clouds Few 3500 ft
Scattered Clouds 4500 ft
Heat Index 82 °F
Dew Point 57 °F
Humidity 42%
Rainfall 0.00 in
Snow Depth Not available.
UV 8 out of 12
Pollen Not available.
Air Quality Not available.
Flu Activity Not available.
METAR GCRR 181130Z 36008KT 330V060 9999 FEW035 SCT045 28/14 Q1015

More Conditions Fewer Conditions

Pressure 29.98 in
Visibility 6.2 miles
Clouds Few 3500 ft
Scattered Clouds 4500 ft
Heat Index 82 °F
Dew Point 57 °F
Humidity 42%
Rainfall 0.00 in
Snow Depth Not available.
UV 8 out of 12
Pollen Not available.
Air Quality Not available.
Flu Activity Not available.
METAR GCRR 181130Z 36008KT 330V060 9999 FEW035 SCT045 28/14 Q1015

More Conditions Fewer Conditions

10-Day Weather Forecast

Almanac

Astronomy

Sep. 18, 2014 Rise Set
Actual Time 7:40 AM WEST 7:56 PM WEST
Civil Twilight 7:17 AM WEST 8:19 PM WEST
Nautical Twilight 6:49 AM WEST 8:47 PM WEST
Astronomical Twilight 6:21 AM WEST 9:15 PM WEST
Moon 2:40 AM WEST 4:21 PM WEST
Length of Visible Light 13h 02m
Length of Day
12h 15m
Tomorrow will be 1m 43s shorter.
Waning Crescent, 28% of the Moon is Illuminated
Today
Waning Crescent
Sep 24
New
Oct 1
First Quarter
Oct 8
Full
Oct 15
Last Quarter

Yesterday's Extremes

Country Highs Country Lows

Community

WunderPhotos

Upload Photos

1,754,324 photos uploaded!

Nearby

Snow Depth

Not available.

Earthquake Activity

City Distance Mag. Time & Date
No recent earthquake activity has been reported nearby.
Minimum magnitude displayed is 2.5.

Coastal Water Temperatures

Place Temperature
No Stations Reporting

Nearby Weather Stations